Flight Track Log - Related Links

Times and Time Zones

All times are in EDT time to prevent confusion due to time zone crossing. See the N3195K flight status page for this flight to view local times or setup timezone preferences in your user account.


Time Position Orientation Groundspeed Altitude Reporting Facility
EDT Latitude Longitude Course Direction KTS MPH feet Rate Location/Type
Sat 03:30:47 PM 42.4667 -71.3167 294° West 72 83 1,200  Level KA90
Sat 03:32:00 PM 42.4833 -71.3667 294° West 135 155 2,700 1,218 Climbing KA90
Sat 03:33:00 PM 42.5167 -71.3333 36° Northeast 147 169 3,900 650 Climbing KA90
Sat 03:34:00 PM 42.5500 -71.3000 36° Northeast 175 201 4,000 50 Climbing KA90
Sat 03:35:00 PM 42.6000 -71.2500 36° Northeast 196 226 4,000 150 Level KA90
Sat 03:36:00 PM 42.6333 -71.2167 36° Northeast 196 226 4,300 500 Climbing KA90
Sat 03:37:00 PM 42.6833 -71.1833 26° Northeast 179 206 5,000 333 Climbing KA90
Sat 03:38:06 PM 42.7167 -71.1333 48° Northeast 195 224 5,000  Level KA90
Sat 03:39:06 PM 42.7667 -71.0833 36° Northeast 192 221 5,000  Level KA90
Sat 03:40:06 PM 42.8000 -71.0333 48° Northeast 190 219 5,000 50 Level KA90
Sat 03:41:07 PM 42.8500 -70.9833 36° Northeast 184 212 5,100  Climbing KA90
Sat 03:42:07 PM 42.8833 -70.9500 36° Northeast 182 209 5,000 -50 Descending KA90
Sat 03:43:07 PM 42.9333 -70.9000 36° Northeast 181 208 5,000  Level KA90
Sat 03:44:07 PM 42.9667 -70.8667 36° Northeast 181 208 5,000  Level KA90
Sat 03:45:13 PM 43.0000 -70.8167 48° Northeast 177 204 5,000  Level KA90
Sat 03:46:07 PM 43.0333 -70.7667 48° Northeast 182 209 5,000  Level KA90
Sat 03:48:00 PM 43.1000 -70.6924 24° Northeast  Level Estimated
Sat 03:55:00 PM 43.3472 -70.4150 50° Northeast  Level Estimated
Sat 03:56:00 PM 43.3854 -70.3807 33° Northeast  Level FlightAware Approximate
Sat 03:57:00 PM 43.4235 -70.3463 33° Northeast  Level FlightAware Approximate
Sat 03:58:00 PM 43.4617 -70.3119 33° Northeast  Level FlightAware Approximate
Sat 03:59:00 PM 43.4999 -70.2774 33° Northeast  Level FlightAware Approximate
Sat 04:00:00 PM 43.5380 -70.2429 33° Northeast  Level FlightAware Approximate
Sat 04:01:00 PM 43.5761 -70.2083 33° Northeast  Level FlightAware Approximate
Sat 04:02:00 PM 43.6142 -70.1737 33° Northeast  Level FlightAware Approximate
Sat 04:03:00 PM 43.6524 -70.1390 33° Northeast  Level FlightAware Approximate
Sat 04:04:00 PM 43.6904 -70.1043 33° Northeast  Level FlightAware Approximate
Sat 04:05:00 PM 43.7285 -70.0696 33° Northeast  Level FlightAware Approximate
Sat 04:06:00 PM 43.7666 -70.0348 33° Northeast  Level FlightAware Approximate
Sat 04:07:00 PM 43.7744 -70.0110 49° Northeast  Level FlightAware Approximate
Sat 04:08:00 PM 43.8042 -69.9633 49° Northeast  Level FlightAware Approximate
Sat 04:09:00 PM 43.8340 -69.9154 55° Northeast  Level FlightAware Approximate

Login

Don't have an account? Register now (free) for customized features, flight alerts, and more!